createdAt,value
2022-09-23T00:01:26.237Z,0.5
2022-09-23T00:03:57.119Z,0.5
2022-09-23T00:06:37.701Z,0.6
2022-09-23T00:09:08.272Z,0.5
2022-09-23T00:11:38.862Z,0.5
2022-09-23T00:14:09.458Z,0.5
2022-09-23T00:16:40.104Z,0.3
2022-09-23T00:19:11.032Z,0.3
2022-09-23T00:21:51.598Z,0.3
2022-09-23T00:24:22.193Z,0.3
2022-09-23T00:29:23.011Z,0.3
2022-09-23T00:31:53.574Z,0.3
2022-09-23T00:34:34.167Z,0.3
2022-09-23T00:37:04.746Z,0.2
2022-09-23T00:39:35.352Z,0.1
2022-09-23T00:42:05.907Z,0.0
2022-09-23T00:44:36.462Z,-0.1
2022-09-23T00:47:07.148Z,-0.1
2022-09-23T00:49:47.768Z,-0.2
2022-09-23T00:52:18.347Z,-0.2
2022-09-23T00:54:48.931Z,-0.2
2022-09-23T00:57:19.498Z,-0.3
2022-09-23T00:59:50.099Z,-0.2
2022-09-23T01:02:20.700Z,-0.4
2022-09-23T01:05:01.455Z,-0.5
2022-09-23T01:10:02.206Z,-0.6
2022-09-23T01:12:32.798Z,-0.6
2022-09-23T01:15:03.382Z,-0.6
2022-09-23T01:17:33.941Z,-0.5
2022-09-23T01:20:14.531Z,-0.4
2022-09-23T01:22:45.114Z,-0.5
2022-09-23T01:25:15.712Z,-0.4
2022-09-23T01:27:46.293Z,0.5
2022-09-23T01:30:16.897Z,0.9
2022-09-23T01:32:57.628Z,0.8
2022-09-23T01:35:28.214Z,0.5
2022-09-23T01:37:58.809Z,0.3
2022-09-23T01:40:29.419Z,0.1
2022-09-23T01:43:00.148Z,0.1
2022-09-23T01:45:30.723Z,0.0
2022-09-23T01:50:41.472Z,-0.3
2022-09-23T01:53:22.066Z,-0.4
2022-09-23T01:55:52.642Z,-0.5
2022-09-23T01:58:23.210Z,-0.5
2022-09-23T02:00:53.868Z,-0.5
2022-09-23T02:03:34.612Z,-0.6
2022-09-23T02:06:05.189Z,-0.7
2022-09-23T02:08:35.766Z,-0.8
2022-09-23T02:11:06.379Z,-0.9
2022-09-23T02:13:36.954Z,-0.7
2022-09-23T02:16:07.566Z,-0.7
2022-09-23T02:18:48.268Z,-0.7
2022-09-23T02:21:18.843Z,-0.7
2022-09-23T02:23:49.435Z,-0.4
2022-09-23T02:26:20.028Z,0.0
2022-09-23T02:31:20.865Z,0.0
2022-09-23T02:34:01.743Z,-0.1
2022-09-23T02:36:32.325Z,-0.3
2022-09-23T02:39:02.930Z,-0.3
2022-09-23T02:41:33.495Z,-0.3
2022-09-23T02:44:04.082Z,-0.4
2022-09-23T02:46:44.678Z,-0.5
2022-09-23T02:49:15.284Z,-0.6
2022-09-23T02:51:45.914Z,-0.7
2022-09-23T02:54:16.487Z,-0.8
2022-09-23T02:56:47.063Z,-0.9
2022-09-23T02:59:17.658Z,-0.9
2022-09-23T03:01:58.298Z,-0.9
2022-09-23T03:04:29.142Z,-1.0
2022-09-23T03:06:59.729Z,-1.1
2022-09-23T03:12:00.431Z,-1.1
2022-09-23T03:14:31.027Z,-0.9
2022-09-23T03:17:11.615Z,-0.8
2022-09-23T03:19:42.193Z,-0.7
2022-09-23T03:22:12.762Z,-0.6
2022-09-23T03:24:43.355Z,-0.5
2022-09-23T03:27:14.695Z,-0.4
2022-09-23T03:29:45.263Z,-0.5
2022-09-23T03:32:25.854Z,-0.5
2022-09-23T03:34:56.441Z,-0.7
2022-09-23T03:37:27.055Z,-0.8
2022-09-23T03:39:57.633Z,-0.9
2022-09-23T03:42:28.334Z,-0.9
2022-09-23T03:44:58.898Z,-1.0
2022-09-23T03:47:39.494Z,-0.9
2022-09-23T03:52:40.240Z,-1.2
2022-09-23T03:55:10.893Z,-1.3
2022-09-23T03:57:41.503Z,-1.4
2022-09-23T04:00:22.115Z,-1.5
2022-09-23T04:02:52.871Z,-1.4
2022-09-23T04:05:23.476Z,-1.2
2022-09-23T04:07:54.044Z,-1.0
2022-09-23T04:13:04.796Z,-0.8
2022-09-23T04:15:45.401Z,-0.9
2022-09-23T04:18:16.086Z,-0.7
2022-09-23T04:20:46.663Z,-0.5
2022-09-23T04:23:17.241Z,-0.5
2022-09-23T04:25:47.832Z,-0.1
2022-09-23T04:28:18.424Z,0.0
2022-09-23T04:33:29.130Z,0.3
2022-09-23T04:35:59.717Z,0.6
2022-09-23T04:38:30.307Z,0.5
2022-09-23T04:41:00.877Z,0.4
2022-09-23T04:43:31.446Z,0.3
2022-09-23T04:46:12.032Z,0.3
2022-09-23T04:48:42.845Z,-0.4
2022-09-23T04:51:13.530Z,-0.6
2022-09-23T04:53:44.096Z,-0.9
2022-09-23T04:56:14.663Z,-1.1
2022-09-23T04:58:55.280Z,-1.4
2022-09-23T05:01:25.918Z,-1.7
2022-09-23T05:03:57.053Z,-1.8
2022-09-23T05:06:27.659Z,-1.8
2022-09-23T05:08:58.188Z,-1.8
2022-09-23T05:14:09.267Z,-1.7
2022-09-23T05:16:39.886Z,-1.7
2022-09-23T05:19:10.532Z,-1.7
2022-09-23T05:21:41.144Z,-1.6
2022-09-23T05:24:11.749Z,-1.7
2022-09-23T05:26:42.339Z,-1.5
2022-09-23T05:29:22.903Z,-1.5
2022-09-23T05:31:53.529Z,-1.4
2022-09-23T05:34:24.292Z,-1.4
2022-09-23T05:36:54.897Z,-1.4
2022-09-23T05:39:25.479Z,-1.4
2022-09-23T05:41:56.087Z,-1.3
2022-09-23T05:44:36.694Z,-1.3
2022-09-23T05:47:07.353Z,-1.2
2022-09-23T05:49:55.537Z,-0.9
2022-09-23T05:54:39.405Z,-0.5
2022-09-23T05:57:09.982Z,-0.3
2022-09-23T06:02:20.759Z,0.3
2022-09-23T06:04:51.553Z,0.5
2022-09-23T06:07:22.124Z,0.3
2022-09-23T06:09:52.713Z,0.2
2022-09-23T06:12:33.304Z,0.3
2022-09-23T06:15:03.903Z,0.3
2022-09-23T06:17:34.473Z,0.4
2022-09-23T06:20:05.037Z,1.0
2022-09-23T06:22:38.336Z,1.5
2022-09-23T06:25:08.013Z,2.2
2022-09-23T06:27:48.610Z,2.7
2022-09-23T06:30:19.161Z,3.0
2022-09-23T06:35:25.879Z,3.8
2022-09-23T06:37:54.919Z,4.0
2022-09-23T06:40:25.564Z,4.3
2022-09-23T06:43:06.426Z,4.6
2022-09-23T06:45:37.024Z,4.9
2022-09-23T06:48:07.616Z,5.2
2022-09-23T06:50:38.215Z,5.6
2022-09-23T06:53:08.835Z,5.8
2022-09-23T06:55:39.392Z,6.0
2022-09-23T06:58:20.010Z,6.2
2022-09-23T07:00:50.610Z,6.6
2022-09-23T07:03:21.346Z,6.7
2022-09-23T07:05:51.916Z,7.0
2022-09-23T07:08:22.496Z,7.4
2022-09-23T07:11:03.102Z,7.4
2022-09-23T07:16:04.222Z,6.8
2022-09-23T07:18:36.873Z,6.8
2022-09-23T07:21:07.674Z,6.7
2022-09-23T07:23:38.283Z,6.6
2022-09-23T07:26:18.881Z,6.4
2022-09-23T07:28:45.193Z,6.4
2022-09-23T07:31:17.884Z,6.4
2022-09-23T07:33:49.212Z,6.4
2022-09-23T07:36:19.885Z,6.5
2022-09-23T07:38:50.479Z,6.5
2022-09-23T07:41:31.072Z,6.4
2022-09-23T07:44:01.637Z,6.5
2022-09-23T07:46:32.323Z,6.5
2022-09-23T07:49:03.152Z,6.6
2022-09-23T07:51:36.235Z,6.7
2022-09-23T07:59:17.562Z,6.7
2022-09-23T08:01:48.176Z,6.6
2022-09-23T08:04:18.852Z,6.8
2022-09-23T08:06:49.414Z,6.7
2022-09-23T08:09:30.003Z,6.8
2022-09-23T08:12:00.569Z,7.1
2022-09-23T08:14:36.373Z,7.2
2022-09-23T08:19:37.144Z,7.5
2022-09-23T08:22:07.721Z,7.6
2022-09-23T08:24:48.330Z,7.6
2022-09-23T08:27:20.517Z,7.6
2022-09-23T08:29:51.103Z,7.6
2022-09-23T08:32:21.701Z,7.7
2022-09-23T08:37:22.394Z,7.8
2022-09-23T08:40:02.991Z,7.9
2022-09-23T08:42:33.746Z,8.0
2022-09-23T08:45:04.352Z,8.1
2022-09-23T08:47:34.906Z,8.1
2022-09-23T08:50:05.521Z,8.2
2022-09-23T08:52:36.122Z,8.4
2022-09-23T08:55:16.718Z,8.4
2022-09-23T08:57:57.555Z,8.5
2022-09-23T09:00:15.662Z,8.6
2022-09-23T09:02:46.273Z,8.7
2022-09-23T09:05:16.988Z,8.9
2022-09-23T09:07:47.563Z,9.1
2022-09-23T09:10:28.134Z,9.2
2022-09-23T09:12:58.704Z,9.4
2022-09-23T09:17:59.471Z,9.4
2022-09-23T09:20:30.173Z,9.6
2022-09-23T09:23:10.758Z,9.8
2022-09-23T09:25:41.367Z,9.8
2022-09-23T09:28:11.938Z,9.8
2022-09-23T09:30:45.160Z,9.8
2022-09-23T09:33:17.044Z,9.8
2022-09-23T09:35:47.624Z,9.6
2022-09-23T09:40:58.363Z,10.0
2022-09-23T09:43:28.963Z,10.1
2022-09-23T09:46:04.448Z,10.2
2022-09-23T09:48:35.165Z,10.3
2022-09-23T09:51:05.759Z,10.4
2022-09-23T09:53:46.311Z,10.6
2022-09-23T09:58:47.060Z,10.8
2022-09-23T10:01:17.809Z,10.8
2022-09-23T10:03:48.581Z,11.0
2022-09-23T10:06:20.160Z,11.0
2022-09-23T10:09:00.762Z,11.2
2022-09-23T10:11:31.366Z,11.6
2022-09-23T10:14:01.971Z,11.6
2022-09-23T10:16:32.610Z,11.7
2022-09-23T10:19:03.359Z,11.8
2022-09-23T10:21:33.936Z,11.8
2022-09-23T10:24:14.508Z,12.0
2022-09-23T10:26:45.108Z,11.9
2022-09-23T10:29:15.707Z,12.0
2022-09-23T10:31:46.284Z,12.1
2022-09-23T10:34:16.933Z,12.3
2022-09-23T10:39:27.701Z,12.4
2022-09-23T10:41:58.297Z,12.3
2022-09-23T10:44:28.925Z,12.1
2022-09-23T10:46:59.491Z,12.4
2022-09-23T10:49:30.085Z,12.6
2022-09-23T10:52:10.693Z,12.7
2022-09-23T10:54:41.298Z,12.7
2022-09-23T10:57:11.865Z,13.0
2022-09-23T10:59:42.466Z,13.1
2022-09-23T11:02:13.022Z,13.2
2022-09-23T11:04:43.726Z,13.2
2022-09-23T11:07:24.535Z,13.3
2022-09-23T11:09:57.652Z,13.4
2022-09-23T11:12:26.062Z,13.4
2022-09-23T11:14:56.652Z,13.5
2022-09-23T11:19:57.377Z,13.5
2022-09-23T11:22:37.988Z,13.5
2022-09-23T11:25:08.611Z,13.6
2022-09-23T11:27:39.227Z,13.7
2022-09-23T11:30:09.833Z,13.7
2022-09-23T11:32:40.540Z,13.8
2022-09-23T11:35:11.242Z,13.8
2022-09-23T11:37:51.834Z,13.9
2022-09-23T11:40:22.458Z,13.9
2022-09-23T11:42:56.625Z,14.1
2022-09-23T11:45:27.194Z,14.3
2022-09-23T11:47:57.964Z,14.4
2022-09-23T11:50:28.564Z,14.6
2022-09-23T11:53:09.153Z,14.5
2022-09-23T11:55:42.742Z,14.6
2022-09-23T12:00:39.223Z,14.6
2022-09-23T12:08:24.654Z,14.6
2022-09-23T12:13:25.378Z,14.6
2022-09-23T12:15:55.957Z,14.8
2022-09-23T12:18:26.582Z,15.1
2022-09-23T12:21:07.176Z,15.4
2022-09-23T12:23:41.584Z,15.4
2022-09-23T12:26:12.247Z,15.2
2022-09-23T12:28:42.822Z,15.2
2022-09-23T12:31:13.453Z,15.2
2022-09-23T12:33:47.850Z,15.2
2022-09-23T12:41:28.962Z,15.2
2022-09-23T12:43:59.540Z,15.5
2022-09-23T12:46:30.218Z,15.5
2022-09-23T12:54:11.096Z,15.4
2022-09-23T12:56:41.691Z,15.7
2022-09-23T13:01:42.529Z,15.8
2022-09-23T13:04:23.579Z,15.9
2022-09-23T13:06:54.146Z,16.0
2022-09-23T13:09:24.717Z,16.1
2022-09-23T13:29:36.317Z,16.0
2022-09-23T13:32:06.920Z,16.1
2022-09-23T13:34:47.505Z,16.2
2022-09-23T13:37:21.566Z,16.0
2022-09-23T13:39:52.787Z,16.2
2022-09-23T13:42:23.432Z,16.3
2022-09-23T13:47:24.157Z,16.1
2022-09-23T13:50:04.746Z,16.2
2022-09-23T13:52:35.354Z,16.2
2022-09-23T13:55:05.954Z,16.3
2022-09-23T13:57:36.525Z,16.5
2022-09-23T14:02:47.348Z,17.0
2022-09-23T14:05:18.006Z,16.9
2022-09-23T14:07:48.617Z,17.3
2022-09-23T14:10:19.191Z,17.7
2022-09-23T14:12:49.770Z,17.4
2022-09-23T14:15:20.355Z,17.2
2022-09-23T14:18:00.956Z,17.3
2022-09-23T14:20:31.550Z,17.6
2022-09-23T14:23:02.112Z,17.9
2022-09-23T14:25:32.718Z,18.5
2022-09-23T14:28:03.302Z,18.3
2022-09-23T14:30:33.905Z,18.2
2022-09-23T14:33:14.522Z,18.5
2022-09-23T14:35:45.101Z,18.0
2022-09-23T14:38:15.703Z,18.0
2022-09-23T14:43:26.461Z,17.6
2022-09-23T14:45:57.214Z,18.0
2022-09-23T14:48:38.045Z,17.6
2022-09-23T14:51:10.859Z,17.2
2022-09-23T14:53:35.066Z,17.2
2022-09-23T14:56:05.661Z,17.6
2022-09-23T14:58:36.248Z,17.2
2022-09-23T15:01:12.560Z,16.9
2022-09-23T15:03:43.383Z,16.9
2022-09-23T15:06:14.073Z,17.3
2022-09-23T15:08:44.663Z,17.6
2022-09-23T15:11:15.237Z,17.8
2022-09-23T15:13:55.852Z,18.0
2022-09-23T15:16:36.565Z,17.8
2022-09-23T15:19:07.225Z,17.9
2022-09-23T15:24:08.003Z,18.0
2022-09-23T15:26:38.664Z,17.5
2022-09-23T15:29:09.269Z,17.3
2022-09-23T15:31:49.984Z,17.6
2022-09-23T15:34:20.802Z,17.4
2022-09-23T15:36:51.376Z,16.8
2022-09-23T15:39:21.996Z,16.7
2022-09-23T15:44:17.089Z,16.1
2022-09-23T15:46:57.668Z,15.9
2022-09-23T15:49:28.242Z,15.8
2022-09-23T15:51:58.850Z,15.7
2022-09-23T15:54:29.450Z,15.6
2022-09-23T15:57:00.029Z,15.3
2022-09-23T15:59:40.640Z,15.3
2022-09-23T16:04:41.345Z,15.0
2022-09-23T16:07:21.947Z,14.9
2022-09-23T16:09:52.522Z,14.8
2022-09-23T16:12:23.164Z,14.6
2022-09-23T16:15:03.748Z,14.5
2022-09-23T16:17:34.356Z,14.3
2022-09-23T16:20:04.937Z,14.2
2022-09-23T16:22:35.502Z,13.7
2022-09-23T16:25:06.078Z,13.6
2022-09-23T16:27:36.682Z,13.6
2022-09-23T16:30:17.290Z,13.4
2022-09-23T16:32:47.913Z,13.3
2022-09-23T16:35:18.499Z,13.1
2022-09-23T16:37:49.186Z,12.9
2022-09-23T16:40:19.884Z,12.7
2022-09-23T16:45:25.357Z,12.2
2022-09-23T16:47:56.091Z,11.9
2022-09-23T16:50:26.682Z,11.7
2022-09-23T16:52:57.269Z,11.3
2022-09-23T16:55:27.871Z,10.8
2022-09-23T16:58:08.467Z,10.5
2022-09-23T17:00:39.208Z,10.1
2022-09-23T17:03:09.967Z,9.9
2022-09-23T17:05:40.553Z,9.7
2022-09-23T17:08:17.502Z,9.7
2022-09-23T17:10:48.073Z,9.6
2022-09-23T17:13:28.730Z,9.5
2022-09-23T17:15:59.406Z,9.4
2022-09-23T17:18:30.142Z,9.2
2022-09-23T17:21:00.721Z,9.0
2022-09-23T17:26:01.459Z,8.6
2022-09-23T17:28:42.069Z,8.4
2022-09-23T17:31:12.735Z,8.3
2022-09-23T17:33:43.542Z,8.0
2022-09-23T17:36:14.100Z,7.9
2022-09-23T17:38:44.786Z,7.8
2022-09-23T17:41:15.369Z,7.6
2022-09-23T17:43:55.966Z,7.5
2022-09-23T17:46:26.522Z,7.3
2022-09-23T17:48:57.135Z,7.2
2022-09-23T17:51:27.843Z,7.2
2022-09-23T17:53:58.443Z,7.2
2022-09-23T17:56:29.026Z,7.1
2022-09-23T17:59:09.671Z,7.0
2022-09-23T18:01:40.301Z,6.9
2022-09-23T18:06:41.309Z,6.8
2022-09-23T18:09:11.876Z,6.7
2022-09-23T18:11:52.440Z,6.7
2022-09-23T18:14:23.020Z,6.7
2022-09-23T18:16:53.646Z,6.7
2022-09-23T18:19:24.265Z,6.7
2022-09-23T18:21:54.828Z,6.6
2022-09-23T18:24:32.123Z,6.7
2022-09-23T18:27:13.375Z,6.7
2022-09-23T18:29:43.979Z,6.7
2022-09-23T18:32:14.665Z,6.7
2022-09-23T18:34:45.295Z,6.7
2022-09-23T18:37:16.318Z,6.7
2022-09-23T18:39:46.969Z,6.6
2022-09-23T18:42:22.862Z,6.5
2022-09-23T18:47:23.588Z,6.5
2022-09-23T18:49:54.168Z,6.4
2022-09-23T18:52:24.753Z,6.4
2022-09-23T18:54:55.342Z,6.4
2022-09-23T18:57:35.945Z,6.4
2022-09-23T19:00:06.511Z,6.4
2022-09-23T19:02:37.130Z,6.4
2022-09-23T19:05:07.736Z,6.4
2022-09-23T19:07:38.296Z,6.4
2022-09-23T19:10:18.891Z,6.4
2022-09-23T19:12:49.528Z,6.3
2022-09-23T19:15:20.095Z,6.2
2022-09-23T19:17:50.707Z,6.1
2022-09-23T19:20:21.307Z,6.1
2022-09-23T19:22:51.896Z,6.1
2022-09-23T19:28:12.639Z,6.1
2022-09-23T19:30:43.239Z,6.1
2022-09-23T19:33:13.905Z,6.2
2022-09-23T19:35:44.468Z,6.2
2022-09-23T19:38:15.032Z,6.2
2022-09-23T19:40:55.677Z,6.2
2022-09-23T19:43:26.286Z,6.2
2022-09-23T19:45:56.881Z,6.2
2022-09-23T19:48:27.528Z,6.1
2022-09-23T19:50:58.086Z,6.1
2022-09-23T19:53:28.684Z,6.1
2022-09-23T19:56:09.304Z,6.1
2022-09-23T19:58:39.882Z,6.0
2022-09-23T20:01:10.487Z,6.0
2022-09-23T20:03:41.221Z,5.9
2022-09-23T20:08:41.994Z,5.8
2022-09-23T20:13:52.730Z,5.7
2022-09-23T20:16:23.388Z,5.6
2022-09-23T20:18:54.245Z,5.6
2022-09-23T20:21:24.877Z,5.6
2022-09-23T20:24:05.473Z,5.8
2022-09-23T20:26:36.028Z,5.7
2022-09-23T20:29:06.614Z,5.6
2022-09-23T20:31:37.255Z,5.5
2022-09-23T20:34:08.237Z,5.4
2022-09-23T20:36:38.932Z,5.3
2022-09-23T20:39:19.569Z,5.2
2022-09-23T20:41:50.148Z,5.3
2022-09-23T20:44:20.739Z,5.6
2022-09-23T20:49:21.539Z,5.9
2022-09-23T20:51:52.116Z,6.1
2022-09-23T20:54:32.761Z,6.1
2022-09-23T20:59:33.507Z,6.1
2022-09-23T21:02:04.138Z,6.0
2022-09-23T21:04:34.907Z,6.0
2022-09-23T21:07:05.484Z,6.1
2022-09-23T21:09:46.086Z,6.0
2022-09-23T21:12:16.650Z,6.0
2022-09-23T21:14:47.232Z,5.9
2022-09-23T21:17:17.814Z,5.9
2022-09-23T21:19:48.399Z,5.8
2022-09-23T21:22:28.995Z,5.7
2022-09-23T21:25:26.761Z,5.7
2022-09-23T21:30:08.209Z,5.7
2022-09-23T21:32:38.809Z,5.6
2022-09-23T21:35:09.414Z,5.8
2022-09-23T21:37:50.001Z,5.8
2022-09-23T21:40:20.695Z,5.8
2022-09-23T21:42:51.511Z,5.8
2022-09-23T21:45:22.170Z,5.7
2022-09-23T21:47:52.840Z,5.7
2022-09-23T21:50:23.438Z,5.7
2022-09-23T21:53:04.023Z,5.7
2022-09-23T21:55:34.620Z,5.7
2022-09-23T21:58:05.221Z,5.8
2022-09-23T22:00:35.859Z,5.7
2022-09-23T22:03:06.642Z,5.8
2022-09-23T22:05:37.243Z,5.8
2022-09-23T22:10:47.971Z,6.0
2022-09-23T22:13:18.533Z,6.0
2022-09-23T22:15:49.164Z,6.0
2022-09-23T22:18:19.971Z,5.9
2022-09-23T22:20:50.555Z,5.9
2022-09-23T22:23:31.168Z,5.8
2022-09-23T22:26:03.302Z,5.7
2022-09-23T22:28:34.133Z,5.7
2022-09-23T22:31:04.788Z,5.6
2022-09-23T22:33:35.543Z,5.6
2022-09-23T22:36:16.117Z,5.6
2022-09-23T22:38:46.698Z,5.6
2022-09-23T22:41:19.769Z,5.7
2022-09-23T22:43:50.377Z,5.6
2022-09-23T22:46:21.210Z,5.6
2022-09-23T22:51:32.257Z,5.7
2022-09-23T22:54:02.869Z,6.0
2022-09-23T22:56:33.469Z,5.8
2022-09-23T22:59:04.030Z,5.8
2022-09-23T23:01:34.675Z,5.8
2022-09-23T23:04:05.547Z,5.7
2022-09-23T23:06:46.348Z,5.6
2022-09-23T23:09:16.971Z,5.6
2022-09-23T23:11:47.553Z,5.6
2022-09-23T23:14:18.128Z,5.6
2022-09-23T23:16:48.721Z,5.7
2022-09-23T23:19:19.426Z,5.8
2022-09-23T23:22:00.070Z,5.8
2022-09-23T23:24:30.661Z,5.7
2022-09-23T23:27:01.237Z,5.7
2022-09-23T23:32:01.982Z,5.6
2022-09-23T23:34:32.577Z,5.6
2022-09-23T23:37:13.919Z,5.4
2022-09-23T23:39:45.675Z,5.3
2022-09-23T23:42:16.328Z,5.2
2022-09-23T23:44:46.916Z,5.3
2022-09-23T23:47:17.509Z,5.3
2022-09-23T23:49:58.110Z,5.3
2022-09-23T23:52:28.689Z,5.4
2022-09-23T23:54:59.280Z,5.3
2022-09-23T23:57:29.867Z,5.2
